sensor_id;sensor_type;location;lat;lon;timestamp;P1;durP1;ratioP1;P2;durP2;ratioP2
60241;SDS011;46103;52.076;113.488;2023-05-09T00:01:58;19.42;;;7.22;;
60241;SDS011;46103;52.076;113.488;2023-05-09T00:05:03;15.00;;;7.03;;
60241;SDS011;46103;52.076;113.488;2023-05-09T00:08:07;15.85;;;7.85;;
60241;SDS011;46103;52.076;113.488;2023-05-09T00:11:11;20.73;;;7.65;;
60241;SDS011;46103;52.076;113.488;2023-05-09T00:14:15;13.07;;;6.85;;
60241;SDS011;46103;52.076;113.488;2023-05-09T00:17:20;12.60;;;6.50;;
60241;SDS011;46103;52.076;113.488;2023-05-09T00:20:26;15.35;;;6.82;;
60241;SDS011;46103;52.076;113.488;2023-05-09T00:23:30;14.70;;;6.60;;
60241;SDS011;46103;52.076;113.488;2023-05-09T00:26:34;15.05;;;6.82;;
60241;SDS011;46103;52.076;113.488;2023-05-09T00:29:37;14.30;;;6.63;;
60241;SDS011;46103;52.076;113.488;2023-05-09T00:32:41;25.45;;;8.90;;
60241;SDS011;46103;52.076;113.488;2023-05-09T00:35:45;19.30;;;7.57;;
60241;SDS011;46103;52.076;113.488;2023-05-09T00:38:49;18.80;;;7.68;;
60241;SDS011;46103;52.076;113.488;2023-05-09T00:41:56;15.68;;;7.63;;
60241;SDS011;46103;52.076;113.488;2023-05-09T00:45:02;13.20;;;7.55;;
60241;SDS011;46103;52.076;113.488;2023-05-09T00:48:07;17.65;;;8.45;;
60241;SDS011;46103;52.076;113.488;2023-05-09T00:51:10;20.20;;;8.02;;
60241;SDS011;46103;52.076;113.488;2023-05-09T00:54:14;21.50;;;8.15;;
60241;SDS011;46103;52.076;113.488;2023-05-09T00:57:18;19.10;;;8.13;;
60241;SDS011;46103;52.076;113.488;2023-05-09T01:00:22;17.73;;;7.97;;
60241;SDS011;46103;52.076;113.488;2023-05-09T01:03:26;16.25;;;7.45;;
60241;SDS011;46103;52.076;113.488;2023-05-09T01:06:44;11.05;;;6.68;;
60241;SDS011;46103;52.076;113.488;2023-05-09T01:10:30;18.13;;;7.78;;
60241;SDS011;46103;52.076;113.488;2023-05-09T01:13:43;14.70;;;6.13;;
60241;SDS011;46103;52.076;113.488;2023-05-09T01:17:00;15.27;;;7.30;;
60241;SDS011;46103;52.076;113.488;2023-05-09T01:20:19;17.42;;;6.90;;
60241;SDS011;46103;52.076;113.488;2023-05-09T01:23:44;15.55;;;7.32;;
60241;SDS011;46103;52.076;113.488;2023-05-09T01:30:57;15.05;;;6.22;;
60241;SDS011;46103;52.076;113.488;2023-05-09T01:34:01;12.32;;;5.80;;
60241;SDS011;46103;52.076;113.488;2023-05-09T01:37:07;14.25;;;6.43;;
60241;SDS011;46103;52.076;113.488;2023-05-09T01:40:13;13.93;;;6.00;;
60241;SDS011;46103;52.076;113.488;2023-05-09T01:43:18;17.40;;;6.95;;
60241;SDS011;46103;52.076;113.488;2023-05-09T01:46:24;13.80;;;6.10;;
60241;SDS011;46103;52.076;113.488;2023-05-09T01:49:30;12.90;;;5.80;;
60241;SDS011;46103;52.076;113.488;2023-05-09T01:52:36;19.15;;;6.00;;
60241;SDS011;46103;52.076;113.488;2023-05-09T01:55:42;11.95;;;5.55;;
60241;SDS011;46103;52.076;113.488;2023-05-09T01:58:46;13.60;;;5.38;;
60241;SDS011;46103;52.076;113.488;2023-05-09T02:01:53;12.52;;;5.32;;
60241;SDS011;46103;52.076;113.488;2023-05-09T02:04:58;10.68;;;5.72;;
60241;SDS011;46103;52.076;113.488;2023-05-09T02:08:04;19.95;;;5.50;;
60241;SDS011;46103;52.076;113.488;2023-05-09T02:11:09;15.63;;;6.18;;
60241;SDS011;46103;52.076;113.488;2023-05-09T02:14:13;12.77;;;5.82;;
60241;SDS011;46103;52.076;113.488;2023-05-09T02:17:16;11.50;;;5.68;;
60241;SDS011;46103;52.076;113.488;2023-05-09T02:20:21;14.60;;;6.28;;
60241;SDS011;46103;52.076;113.488;2023-05-09T02:23:24;13.02;;;5.82;;
60241;SDS011;46103;52.076;113.488;2023-05-09T02:26:28;20.00;;;5.97;;
60241;SDS011;46103;52.076;113.488;2023-05-09T02:29:34;22.98;;;5.82;;
60241;SDS011;46103;52.076;113.488;2023-05-09T02:32:44;16.63;;;6.57;;
60241;SDS011;46103;52.076;113.488;2023-05-09T02:35:52;17.98;;;6.32;;
60241;SDS011;46103;52.076;113.488;2023-05-09T02:38:59;14.77;;;6.53;;
60241;SDS011;46103;52.076;113.488;2023-05-09T02:42:10;16.77;;;6.78;;
60241;SDS011;46103;52.076;113.488;2023-05-09T02:45:15;12.57;;;6.78;;
60241;SDS011;46103;52.076;113.488;2023-05-09T02:48:19;13.35;;;6.40;;
60241;SDS011;46103;52.076;113.488;2023-05-09T02:51:23;13.75;;;6.82;;
60241;SDS011;46103;52.076;113.488;2023-05-09T02:54:27;14.90;;;6.53;;
60241;SDS011;46103;52.076;113.488;2023-05-09T02:57:30;14.55;;;6.60;;
60241;SDS011;46103;52.076;113.488;2023-05-09T03:00:34;16.77;;;6.95;;
60241;SDS011;46103;52.076;113.488;2023-05-09T03:03:39;17.05;;;7.35;;
60241;SDS011;46103;52.076;113.488;2023-05-09T03:06:44;14.35;;;7.07;;
60241;SDS011;46103;52.076;113.488;2023-05-09T03:09:48;15.15;;;7.20;;
60241;SDS011;46103;52.076;113.488;2023-05-09T03:12:52;15.88;;;7.65;;
60241;SDS011;46103;52.076;113.488;2023-05-09T03:15:56;15.95;;;6.85;;
60241;SDS011;46103;52.076;113.488;2023-05-09T03:18:59;22.13;;;7.82;;
60241;SDS011;46103;52.076;113.488;2023-05-09T03:22:02;17.80;;;8.23;;
60241;SDS011;46103;52.076;113.488;2023-05-09T03:25:10;20.90;;;8.40;;
60241;SDS011;46103;52.076;113.488;2023-05-09T03:28:14;13.55;;;7.28;;
60241;SDS011;46103;52.076;113.488;2023-05-09T03:31:18;15.40;;;7.68;;
60241;SDS011;46103;52.076;113.488;2023-05-09T03:34:22;18.75;;;7.78;;
60241;SDS011;46103;52.076;113.488;2023-05-09T03:37:26;15.52;;;7.80;;
60241;SDS011;46103;52.076;113.488;2023-05-09T03:40:30;16.92;;;8.00;;
60241;SDS011;46103;52.076;113.488;2023-05-09T03:43:41;22.55;;;9.18;;
60241;SDS011;46103;52.076;113.488;2023-05-09T03:46:46;17.15;;;8.82;;
60241;SDS011;46103;52.076;113.488;2023-05-09T03:49:50;18.73;;;10.07;;
60241;SDS011;46103;52.076;113.488;2023-05-09T03:52:56;15.07;;;9.20;;
60241;SDS011;46103;52.076;113.488;2023-05-09T03:56:00;19.77;;;11.60;;
60241;SDS011;46103;52.076;113.488;2023-05-09T03:59:08;18.65;;;11.05;;
60241;SDS011;46103;52.076;113.488;2023-05-09T04:02:12;18.17;;;10.07;;
60241;SDS011;46103;52.076;113.488;2023-05-09T04:05:18;19.77;;;10.45;;
60241;SDS011;46103;52.076;113.488;2023-05-09T04:08:22;20.58;;;11.10;;
60241;SDS011;46103;52.076;113.488;2023-05-09T04:11:26;17.88;;;11.88;;
60241;SDS011;46103;52.076;113.488;2023-05-09T04:14:33;22.07;;;11.50;;
60241;SDS011;46103;52.076;113.488;2023-05-09T04:17:36;26.67;;;11.50;;
60241;SDS011;46103;52.076;113.488;2023-05-09T04:20:40;23.05;;;12.07;;
60241;SDS011;46103;52.076;113.488;2023-05-09T04:23:45;23.27;;;12.15;;
60241;SDS011;46103;52.076;113.488;2023-05-09T04:26:53;21.63;;;11.45;;
60241;SDS011;46103;52.076;113.488;2023-05-09T04:29:59;19.38;;;11.07;;
60241;SDS011;46103;52.076;113.488;2023-05-09T04:33:04;21.98;;;11.27;;
60241;SDS011;46103;52.076;113.488;2023-05-09T04:36:08;23.55;;;11.63;;
60241;SDS011;46103;52.076;113.488;2023-05-09T04:39:13;18.33;;;11.25;;
60241;SDS011;46103;52.076;113.488;2023-05-09T04:42:25;20.15;;;12.35;;
60241;SDS011;46103;52.076;113.488;2023-05-09T04:45:29;26.77;;;14.00;;
60241;SDS011;46103;52.076;113.488;2023-05-09T04:48:35;27.70;;;13.13;;
60241;SDS011;46103;52.076;113.488;2023-05-09T04:51:39;22.00;;;12.73;;
60241;SDS011;46103;52.076;113.488;2023-05-09T04:54:43;23.85;;;12.95;;
60241;SDS011;46103;52.076;113.488;2023-05-09T04:57:49;20.03;;;12.57;;
60241;SDS011;46103;52.076;113.488;2023-05-09T05:00:53;21.90;;;13.15;;
60241;SDS011;46103;52.076;113.488;2023-05-09T05:03:57;24.70;;;12.65;;
60241;SDS011;46103;52.076;113.488;2023-05-09T05:07:03;22.80;;;12.40;;
60241;SDS011;46103;52.076;113.488;2023-05-09T05:10:09;19.85;;;12.10;;
60241;SDS011;46103;52.076;113.488;2023-05-09T05:13:16;20.08;;;11.73;;
60241;SDS011;46103;52.076;113.488;2023-05-09T05:16:24;24.35;;;12.85;;
60241;SDS011;46103;52.076;113.488;2023-05-09T05:19:27;26.60;;;12.75;;
60241;SDS011;46103;52.076;113.488;2023-05-09T05:22:32;20.70;;;12.30;;
60241;SDS011;46103;52.076;113.488;2023-05-09T05:25:36;20.00;;;12.93;;
60241;SDS011;46103;52.076;113.488;2023-05-09T05:28:40;19.08;;;12.05;;
60241;SDS011;46103;52.076;113.488;2023-05-09T05:31:44;21.63;;;12.30;;
60241;SDS011;46103;52.076;113.488;2023-05-09T05:34:48;23.08;;;14.23;;
60241;SDS011;46103;52.076;113.488;2023-05-09T05:37:52;22.70;;;12.93;;
60241;SDS011;46103;52.076;113.488;2023-05-09T05:40:56;20.48;;;13.20;;
60241;SDS011;46103;52.076;113.488;2023-05-09T05:44:01;23.05;;;13.82;;
60241;SDS011;46103;52.076;113.488;2023-05-09T05:47:07;24.92;;;13.70;;
60241;SDS011;46103;52.076;113.488;2023-05-09T05:50:11;24.73;;;13.45;;
60241;SDS011;46103;52.076;113.488;2023-05-09T05:53:16;21.02;;;12.30;;
60241;SDS011;46103;52.076;113.488;2023-05-09T05:56:20;26.05;;;14.23;;
60241;SDS011;46103;52.076;113.488;2023-05-09T05:59:24;21.83;;;14.80;;
60241;SDS011;46103;52.076;113.488;2023-05-09T06:02:28;21.23;;;13.52;;
60241;SDS011;46103;52.076;113.488;2023-05-09T06:05:33;18.65;;;12.63;;
60241;SDS011;46103;52.076;113.488;2023-05-09T06:08:37;22.77;;;14.85;;
60241;SDS011;46103;52.076;113.488;2023-05-09T06:11:41;21.98;;;14.63;;
60241;SDS011;46103;52.076;113.488;2023-05-09T06:14:45;25.70;;;16.08;;
60241;SDS011;46103;52.076;113.488;2023-05-09T06:17:48;23.55;;;15.85;;
60241;SDS011;46103;52.076;113.488;2023-05-09T06:20:53;23.05;;;16.25;;
60241;SDS011;46103;52.076;113.488;2023-05-09T06:23:56;26.17;;;16.33;;
60241;SDS011;46103;52.076;113.488;2023-05-09T06:27:15;25.42;;;16.70;;
60241;SDS011;46103;52.076;113.488;2023-05-09T06:30:19;24.67;;;16.08;;
60241;SDS011;46103;52.076;113.488;2023-05-09T06:33:28;24.00;;;16.63;;
60241;SDS011;46103;52.076;113.488;2023-05-09T06:36:32;26.17;;;15.75;;
60241;SDS011;46103;52.076;113.488;2023-05-09T06:39:36;27.17;;;16.60;;
60241;SDS011;46103;52.076;113.488;2023-05-09T06:42:41;29.27;;;16.48;;
60241;SDS011;46103;52.076;113.488;2023-05-09T06:45:44;25.38;;;16.63;;
60241;SDS011;46103;52.076;113.488;2023-05-09T06:48:49;28.02;;;18.85;;
60241;SDS011;46103;52.076;113.488;2023-05-09T06:51:52;26.70;;;18.02;;
60241;SDS011;46103;52.076;113.488;2023-05-09T06:54:56;28.35;;;17.27;;
60241;SDS011;46103;52.076;113.488;2023-05-09T06:58:00;27.95;;;18.63;;
60241;SDS011;46103;52.076;113.488;2023-05-09T07:01:04;27.50;;;18.15;;
60241;SDS011;46103;52.076;113.488;2023-05-09T07:04:08;23.38;;;17.25;;
60241;SDS011;46103;52.076;113.488;2023-05-09T07:07:13;27.90;;;18.20;;
60241;SDS011;46103;52.076;113.488;2023-05-09T07:10:18;29.08;;;17.88;;
60241;SDS011;46103;52.076;113.488;2023-05-09T07:13:22;23.90;;;17.35;;
60241;SDS011;46103;52.076;113.488;2023-05-09T07:16:26;27.52;;;19.27;;
60241;SDS011;46103;52.076;113.488;2023-05-09T07:19:31;30.98;;;19.05;;
60241;SDS011;46103;52.076;113.488;2023-05-09T07:22:35;24.35;;;18.02;;
60241;SDS011;46103;52.076;113.488;2023-05-09T07:25:39;28.25;;;19.42;;
60241;SDS011;46103;52.076;113.488;2023-05-09T07:28:42;24.77;;;18.55;;
60241;SDS011;46103;52.076;113.488;2023-05-09T07:31:47;31.83;;;19.00;;
60241;SDS011;46103;52.076;113.488;2023-05-09T07:34:51;23.30;;;17.88;;
60241;SDS011;46103;52.076;113.488;2023-05-09T07:37:55;27.63;;;19.85;;
60241;SDS011;46103;52.076;113.488;2023-05-09T07:40:59;24.80;;;20.15;;
60241;SDS011;46103;52.076;113.488;2023-05-09T07:44:03;28.77;;;21.00;;
60241;SDS011;46103;52.076;113.488;2023-05-09T07:47:06;26.83;;;20.17;;
60241;SDS011;46103;52.076;113.488;2023-05-09T07:50:11;26.98;;;20.05;;
60241;SDS011;46103;52.076;113.488;2023-05-09T07:53:14;30.90;;;20.63;;
60241;SDS011;46103;52.076;113.488;2023-05-09T07:56:18;29.27;;;22.65;;
60241;SDS011;46103;52.076;113.488;2023-05-09T07:59:23;35.75;;;22.95;;
60241;SDS011;46103;52.076;113.488;2023-05-09T08:02:27;31.67;;;22.30;;
60241;SDS011;46103;52.076;113.488;2023-05-09T08:05:30;31.92;;;21.92;;
60241;SDS011;46103;52.076;113.488;2023-05-09T08:08:34;27.67;;;21.77;;
60241;SDS011;46103;52.076;113.488;2023-05-09T08:11:40;33.40;;;21.95;;
60241;SDS011;46103;52.076;113.488;2023-05-09T08:14:45;29.65;;;22.58;;
60241;SDS011;46103;52.076;113.488;2023-05-09T08:17:48;29.70;;;22.08;;
60241;SDS011;46103;52.076;113.488;2023-05-09T08:20:53;30.95;;;22.38;;
60241;SDS011;46103;52.076;113.488;2023-05-09T08:23:56;29.38;;;23.23;;
60241;SDS011;46103;52.076;113.488;2023-05-09T08:27:00;26.95;;;22.70;;
60241;SDS011;46103;52.076;113.488;2023-05-09T08:30:04;36.30;;;22.92;;
60241;SDS011;46103;52.076;113.488;2023-05-09T08:33:09;30.30;;;22.67;;
60241;SDS011;46103;52.076;113.488;2023-05-09T08:36:13;26.55;;;21.00;;
60241;SDS011;46103;52.076;113.488;2023-05-09T08:39:20;29.98;;;23.00;;
60241;SDS011;46103;52.076;113.488;2023-05-09T08:42:24;28.27;;;22.52;;
60241;SDS011;46103;52.076;113.488;2023-05-09T08:45:30;30.08;;;23.73;;
60241;SDS011;46103;52.076;113.488;2023-05-09T08:48:49;30.27;;;24.33;;
60241;SDS011;46103;52.076;113.488;2023-05-09T08:51:54;30.45;;;23.98;;
60241;SDS011;46103;52.076;113.488;2023-05-09T08:54:59;36.30;;;23.90;;
60241;SDS011;46103;52.076;113.488;2023-05-09T08:58:03;34.47;;;24.65;;
60241;SDS011;46103;52.076;113.488;2023-05-09T09:01:07;29.23;;;24.52;;
60241;SDS011;46103;52.076;113.488;2023-05-09T09:04:12;30.00;;;25.80;;
60241;SDS011;46103;52.076;113.488;2023-05-09T09:07:16;35.67;;;25.30;;
60241;SDS011;46103;52.076;113.488;2023-05-09T09:10:21;31.83;;;27.45;;
60241;SDS011;46103;52.076;113.488;2023-05-09T09:13:27;35.78;;;27.88;;
60241;SDS011;46103;52.076;113.488;2023-05-09T09:16:32;38.55;;;27.80;;
60241;SDS011;46103;52.076;113.488;2023-05-09T09:19:37;34.13;;;26.40;;
60241;SDS011;46103;52.076;113.488;2023-05-09T09:22:44;36.08;;;26.10;;
60241;SDS011;46103;52.076;113.488;2023-05-09T09:26:08;35.85;;;26.45;;
60241;SDS011;46103;52.076;113.488;2023-05-09T09:29:13;32.20;;;25.58;;
60241;SDS011;46103;52.076;113.488;2023-05-09T09:32:17;40.53;;;28.77;;
60241;SDS011;46103;52.076;113.488;2023-05-09T09:35:21;37.75;;;29.40;;
60241;SDS011;46103;52.076;113.488;2023-05-09T09:38:26;37.08;;;28.70;;
60241;SDS011;46103;52.076;113.488;2023-05-09T09:41:32;37.60;;;29.33;;
60241;SDS011;46103;52.076;113.488;2023-05-09T09:44:40;34.05;;;27.20;;
60241;SDS011;46103;52.076;113.488;2023-05-09T09:47:45;37.80;;;29.20;;
60241;SDS011;46103;52.076;113.488;2023-05-09T09:50:49;37.35;;;28.48;;
60241;SDS011;46103;52.076;113.488;2023-05-09T09:53:53;34.13;;;27.20;;
60241;SDS011;46103;52.076;113.488;2023-05-09T09:56:57;40.78;;;30.00;;
60241;SDS011;46103;52.076;113.488;2023-05-09T10:00:02;37.28;;;28.90;;
60241;SDS011;46103;52.076;113.488;2023-05-09T10:03:08;39.13;;;28.83;;
60241;SDS011;46103;52.076;113.488;2023-05-09T10:06:18;34.58;;;28.17;;
60241;SDS011;46103;52.076;113.488;2023-05-09T10:09:22;41.85;;;29.08;;
60241;SDS011;46103;52.076;113.488;2023-05-09T10:12:26;40.17;;;29.67;;
60241;SDS011;46103;52.076;113.488;2023-05-09T10:15:31;37.63;;;28.92;;
60241;SDS011;46103;52.076;113.488;2023-05-09T10:18:54;38.47;;;29.90;;
60241;SDS011;46103;52.076;113.488;2023-05-09T10:21:58;40.45;;;29.58;;
60241;SDS011;46103;52.076;113.488;2023-05-09T10:25:07;35.85;;;29.55;;
60241;SDS011;46103;52.076;113.488;2023-05-09T10:28:17;38.72;;;30.45;;
60241;SDS011;46103;52.076;113.488;2023-05-09T10:31:25;39.50;;;31.00;;
60241;SDS011;46103;52.076;113.488;2023-05-09T10:34:30;43.45;;;30.75;;
60241;SDS011;46103;52.076;113.488;2023-05-09T10:37:36;46.70;;;30.77;;
60241;SDS011;46103;52.076;113.488;2023-05-09T10:40:41;41.50;;;30.25;;
60241;SDS011;46103;52.076;113.488;2023-05-09T10:43:48;44.83;;;31.92;;
60241;SDS011;46103;52.076;113.488;2023-05-09T10:46:53;47.65;;;33.40;;
60241;SDS011;46103;52.076;113.488;2023-05-09T10:49:57;44.22;;;33.50;;
60241;SDS011;46103;52.076;113.488;2023-05-09T10:56:30;49.50;;;33.88;;
60241;SDS011;46103;52.076;113.488;2023-05-09T10:59:39;46.60;;;32.70;;
60241;SDS011;46103;52.076;113.488;2023-05-09T11:03:04;55.08;;;36.40;;
60241;SDS011;46103;52.076;113.488;2023-05-09T11:06:09;55.78;;;39.25;;
60241;SDS011;46103;52.076;113.488;2023-05-09T11:10:09;67.13;;;39.58;;
60241;SDS011;46103;52.076;113.488;2023-05-09T11:13:20;70.15;;;39.88;;
60241;SDS011;46103;52.076;113.488;2023-05-09T11:16:25;63.50;;;39.20;;
60241;SDS011;46103;52.076;113.488;2023-05-09T11:19:36;58.58;;;37.17;;
60241;SDS011;46103;52.076;113.488;2023-05-09T11:22:48;55.33;;;35.45;;
60241;SDS011;46103;52.076;113.488;2023-05-09T11:26:03;63.30;;;38.42;;
60241;SDS011;46103;52.076;113.488;2023-05-09T11:29:08;58.22;;;35.67;;
60241;SDS011;46103;52.076;113.488;2023-05-09T11:32:14;62.53;;;38.22;;
60241;SDS011;46103;52.076;113.488;2023-05-09T11:35:20;58.33;;;38.25;;
60241;SDS011;46103;52.076;113.488;2023-05-09T11:38:24;64.45;;;37.30;;
60241;SDS011;46103;52.076;113.488;2023-05-09T11:41:27;67.30;;;39.17;;
60241;SDS011;46103;52.076;113.488;2023-05-09T11:44:31;74.03;;;38.08;;
60241;SDS011;46103;52.076;113.488;2023-05-09T11:47:37;64.57;;;38.60;;
60241;SDS011;46103;52.076;113.488;2023-05-09T11:50:42;56.40;;;34.33;;
60241;SDS011;46103;52.076;113.488;2023-05-09T11:53:49;63.63;;;36.28;;
60241;SDS011;46103;52.076;113.488;2023-05-09T11:56:52;61.97;;;37.55;;
60241;SDS011;46103;52.076;113.488;2023-05-09T11:59:56;69.07;;;41.63;;
60241;SDS011;46103;52.076;113.488;2023-05-09T12:03:05;64.15;;;33.10;;
60241;SDS011;46103;52.076;113.488;2023-05-09T12:06:13;61.72;;;33.55;;
60241;SDS011;46103;52.076;113.488;2023-05-09T12:09:18;52.00;;;32.17;;
60241;SDS011;46103;52.076;113.488;2023-05-09T12:12:23;55.20;;;31.90;;
60241;SDS011;46103;52.076;113.488;2023-05-09T12:15:27;54.78;;;32.50;;
60241;SDS011;46103;52.076;113.488;2023-05-09T12:18:31;55.42;;;31.55;;
60241;SDS011;46103;52.076;113.488;2023-05-09T12:21:36;53.95;;;31.95;;
60241;SDS011;46103;52.076;113.488;2023-05-09T12:24:41;49.33;;;31.60;;
60241;SDS011;46103;52.076;113.488;2023-05-09T12:27:44;47.92;;;29.92;;
60241;SDS011;46103;52.076;113.488;2023-05-09T12:30:48;52.50;;;31.13;;
60241;SDS011;46103;52.076;113.488;2023-05-09T12:33:53;57.88;;;30.73;;
60241;SDS011;46103;52.076;113.488;2023-05-09T12:36:56;57.70;;;31.92;;
60241;SDS011;46103;52.076;113.488;2023-05-09T12:40:02;60.95;;;32.88;;
60241;SDS011;46103;52.076;113.488;2023-05-09T12:43:07;61.00;;;34.30;;
60241;SDS011;46103;52.076;113.488;2023-05-09T12:46:10;67.88;;;36.58;;
60241;SDS011;46103;52.076;113.488;2023-05-09T12:49:18;68.88;;;34.30;;
60241;SDS011;46103;52.076;113.488;2023-05-09T12:52:24;90.85;;;40.70;;
60241;SDS011;46103;52.076;113.488;2023-05-09T12:55:28;81.43;;;40.17;;
60241;SDS011;46103;52.076;113.488;2023-05-09T12:58:33;77.60;;;38.88;;
60241;SDS011;46103;52.076;113.488;2023-05-09T13:01:37;71.85;;;37.97;;
60241;SDS011;46103;52.076;113.488;2023-05-09T13:04:41;60.85;;;36.38;;
60241;SDS011;46103;52.076;113.488;2023-05-09T13:07:55;83.88;;;39.78;;
60241;SDS011;46103;52.076;113.488;2023-05-09T13:10:59;71.65;;;38.55;;
60241;SDS011;46103;52.076;113.488;2023-05-09T13:14:17;68.80;;;35.80;;
60241;SDS011;46103;52.076;113.488;2023-05-09T13:17:23;63.63;;;36.72;;
60241;SDS011;46103;52.076;113.488;2023-05-09T13:20:27;70.07;;;37.05;;
60241;SDS011;46103;52.076;113.488;2023-05-09T13:23:31;67.88;;;36.50;;
60241;SDS011;46103;52.076;113.488;2023-05-09T13:26:34;68.00;;;38.50;;
60241;SDS011;46103;52.076;113.488;2023-05-09T13:29:38;71.57;;;42.90;;
60241;SDS011;46103;52.076;113.488;2023-05-09T13:32:45;96.50;;;47.77;;
60241;SDS011;46103;52.076;113.488;2023-05-09T13:35:59;87.63;;;46.05;;
60241;SDS011;46103;52.076;113.488;2023-05-09T13:39:03;98.68;;;48.50;;
60241;SDS011;46103;52.076;113.488;2023-05-09T13:42:07;102.00;;;48.30;;
60241;SDS011;46103;52.076;113.488;2023-05-09T13:45:10;101.80;;;50.10;;
60241;SDS011;46103;52.076;113.488;2023-05-09T13:48:13;91.68;;;45.78;;
60241;SDS011;46103;52.076;113.488;2023-05-09T13:51:17;72.40;;;38.47;;
60241;SDS011;46103;52.076;113.488;2023-05-09T13:54:20;75.40;;;39.50;;
60241;SDS011;46103;52.076;113.488;2023-05-09T13:57:26;66.30;;;37.33;;
60241;SDS011;46103;52.076;113.488;2023-05-09T14:00:30;68.93;;;39.05;;
60241;SDS011;46103;52.076;113.488;2023-05-09T14:03:35;64.05;;;35.10;;
60241;SDS011;46103;52.076;113.488;2023-05-09T14:06:39;67.85;;;37.97;;
60241;SDS011;46103;52.076;113.488;2023-05-09T14:09:48;67.32;;;35.95;;
60241;SDS011;46103;52.076;113.488;2023-05-09T14:13:02;60.90;;;32.85;;
60241;SDS011;46103;52.076;113.488;2023-05-09T14:16:06;57.65;;;31.42;;
60241;SDS011;46103;52.076;113.488;2023-05-09T14:19:11;55.75;;;32.40;;
60241;SDS011;46103;52.076;113.488;2023-05-09T14:22:16;56.13;;;30.67;;
60241;SDS011;46103;52.076;113.488;2023-05-09T14:25:19;53.92;;;31.65;;
60241;SDS011;46103;52.076;113.488;2023-05-09T14:28:24;58.28;;;31.40;;
60241;SDS011;46103;52.076;113.488;2023-05-09T14:31:28;63.80;;;33.63;;
60241;SDS011;46103;52.076;113.488;2023-05-09T14:34:31;56.70;;;32.58;;
60241;SDS011;46103;52.076;113.488;2023-05-09T14:37:35;56.35;;;30.67;;
60241;SDS011;46103;52.076;113.488;2023-05-09T14:40:39;48.03;;;30.48;;
60241;SDS011;46103;52.076;113.488;2023-05-09T14:43:42;55.65;;;29.92;;
60241;SDS011;46103;52.076;113.488;2023-05-09T14:46:45;53.03;;;30.50;;
60241;SDS011;46103;52.076;113.488;2023-05-09T14:49:50;48.13;;;29.67;;
60241;SDS011;46103;52.076;113.488;2023-05-09T14:52:54;83.35;;;37.95;;
60241;SDS011;46103;52.076;113.488;2023-05-09T14:55:57;67.93;;;35.83;;
60241;SDS011;46103;52.076;113.488;2023-05-09T14:59:00;71.25;;;34.72;;
60241;SDS011;46103;52.076;113.488;2023-05-09T15:02:05;66.53;;;32.58;;
60241;SDS011;46103;52.076;113.488;2023-05-09T15:05:08;56.53;;;31.85;;
60241;SDS011;46103;52.076;113.488;2023-05-09T15:08:12;67.10;;;36.38;;
60241;SDS011;46103;52.076;113.488;2023-05-09T15:11:16;67.90;;;35.28;;
60241;SDS011;46103;52.076;113.488;2023-05-09T15:14:20;63.85;;;33.45;;
60241;SDS011;46103;52.076;113.488;2023-05-09T15:17:23;64.75;;;34.95;;
60241;SDS011;46103;52.076;113.488;2023-05-09T15:20:26;61.65;;;33.30;;
60241;SDS011;46103;52.076;113.488;2023-05-09T15:23:29;61.15;;;33.65;;
60241;SDS011;46103;52.076;113.488;2023-05-09T15:26:33;55.58;;;32.88;;
60241;SDS011;46103;52.076;113.488;2023-05-09T15:29:37;68.47;;;33.22;;
60241;SDS011;46103;52.076;113.488;2023-05-09T15:32:43;60.83;;;33.35;;
60241;SDS011;46103;52.076;113.488;2023-05-09T15:35:46;73.50;;;32.17;;
60241;SDS011;46103;52.076;113.488;2023-05-09T15:38:51;61.03;;;31.65;;
60241;SDS011;46103;52.076;113.488;2023-05-09T15:41:54;62.10;;;33.13;;
60241;SDS011;46103;52.076;113.488;2023-05-09T15:44:57;63.00;;;32.53;;
60241;SDS011;46103;52.076;113.488;2023-05-09T15:48:01;69.65;;;32.47;;
60241;SDS011;46103;52.076;113.488;2023-05-09T15:51:05;59.75;;;31.55;;
60241;SDS011;46103;52.076;113.488;2023-05-09T15:54:08;64.30;;;31.65;;
60241;SDS011;46103;52.076;113.488;2023-05-09T15:57:12;68.82;;;33.20;;
60241;SDS011;46103;52.076;113.488;2023-05-09T16:00:16;68.13;;;33.85;;
60241;SDS011;46103;52.076;113.488;2023-05-09T16:03:20;64.05;;;33.15;;
60241;SDS011;46103;52.076;113.488;2023-05-09T16:06:25;58.50;;;31.63;;
60241;SDS011;46103;52.076;113.488;2023-05-09T16:09:30;60.00;;;31.75;;
60241;SDS011;46103;52.076;113.488;2023-05-09T16:12:34;59.97;;;30.27;;
60241;SDS011;46103;52.076;113.488;2023-05-09T16:15:38;86.40;;;38.90;;
60241;SDS011;46103;52.076;113.488;2023-05-09T16:18:42;87.18;;;36.88;;
60241;SDS011;46103;52.076;113.488;2023-05-09T16:21:46;84.40;;;35.97;;
60241;SDS011;46103;52.076;113.488;2023-05-09T16:24:50;75.70;;;36.85;;
60241;SDS011;46103;52.076;113.488;2023-05-09T16:27:54;76.18;;;36.75;;
60241;SDS011;46103;52.076;113.488;2023-05-09T16:30:58;79.20;;;36.05;;
60241;SDS011;46103;52.076;113.488;2023-05-09T16:34:06;77.05;;;36.25;;
60241;SDS011;46103;52.076;113.488;2023-05-09T16:37:10;72.03;;;33.85;;
60241;SDS011;46103;52.076;113.488;2023-05-09T16:40:13;69.45;;;35.08;;
60241;SDS011;46103;52.076;113.488;2023-05-09T16:43:17;73.65;;;34.60;;
60241;SDS011;46103;52.076;113.488;2023-05-09T16:46:22;63.90;;;32.15;;
60241;SDS011;46103;52.076;113.488;2023-05-09T16:49:26;68.78;;;31.42;;
60241;SDS011;46103;52.076;113.488;2023-05-09T16:52:29;68.20;;;32.85;;
60241;SDS011;46103;52.076;113.488;2023-05-09T16:55:34;57.10;;;31.58;;
60241;SDS011;46103;52.076;113.488;2023-05-09T16:58:37;61.55;;;30.88;;
60241;SDS011;46103;52.076;113.488;2023-05-09T17:01:41;70.95;;;31.63;;
60241;SDS011;46103;52.076;113.488;2023-05-09T17:04:45;58.58;;;30.45;;
60241;SDS011;46103;52.076;113.488;2023-05-09T17:07:49;62.33;;;30.25;;
60241;SDS011;46103;52.076;113.488;2023-05-09T17:10:52;58.33;;;30.33;;
60241;SDS011;46103;52.076;113.488;2023-05-09T17:13:56;63.55;;;31.80;;
60241;SDS011;46103;52.076;113.488;2023-05-09T17:17:00;61.90;;;30.75;;
60241;SDS011;46103;52.076;113.488;2023-05-09T17:20:04;64.03;;;32.15;;
60241;SDS011;46103;52.076;113.488;2023-05-09T17:23:08;60.33;;;30.17;;
60241;SDS011;46103;52.076;113.488;2023-05-09T17:26:13;62.03;;;30.05;;
60241;SDS011;46103;52.076;113.488;2023-05-09T17:29:16;66.82;;;31.15;;
60241;SDS011;46103;52.076;113.488;2023-05-09T17:32:20;61.38;;;32.28;;
60241;SDS011;46103;52.076;113.488;2023-05-09T17:35:24;64.53;;;31.25;;
60241;SDS011;46103;52.076;113.488;2023-05-09T17:38:27;63.63;;;32.20;;
60241;SDS011;46103;52.076;113.488;2023-05-09T17:41:32;72.55;;;33.78;;
60241;SDS011;46103;52.076;113.488;2023-05-09T17:44:36;66.50;;;31.35;;